createdAt,value
2023-01-19T00:14:13.196Z,112.84344
2023-01-19T00:29:15.715Z,35.50131
2023-01-19T00:44:17.988Z,5.07162
2023-01-19T00:59:20.251Z,0
2023-01-19T01:14:22.520Z,0
2023-01-19T01:29:25.009Z,0
2023-01-19T01:44:27.387Z,0
2023-01-19T01:59:29.777Z,0
2023-01-19T02:14:32.144Z,0
2023-01-19T02:29:34.361Z,0
2023-01-19T02:44:36.667Z,0
2023-01-19T02:59:39.123Z,0
2023-01-19T03:14:41.427Z,0
2023-01-19T03:29:43.677Z,0
2023-01-19T03:44:46.099Z,0
2023-01-19T03:59:48.790Z,0
2023-01-19T04:14:51.194Z,0
2023-01-19T04:29:53.678Z,0
2023-01-19T04:44:55.919Z,0
2023-01-19T04:59:58.195Z,0
2023-01-19T05:15:00.426Z,0
2023-01-19T05:30:02.906Z,0
2023-01-19T05:45:05.150Z,0
2023-01-19T06:00:07.614Z,0
2023-01-19T06:15:09.862Z,0
2023-01-19T06:30:12.316Z,0
2023-01-19T06:45:14.766Z,0
2023-01-19T07:00:17.262Z,0
2023-01-19T07:15:19.563Z,0
2023-01-19T07:30:21.903Z,0
2023-01-19T07:45:24.108Z,0
2023-01-19T08:00:26.354Z,0
2023-01-19T08:15:28.675Z,0
2023-01-19T08:30:31.111Z,0
2023-01-19T08:45:33.392Z,0
2023-01-19T09:00:35.735Z,0
2023-01-19T09:15:38.299Z,0
2023-01-19T09:30:40.792Z,0
2023-01-19T09:45:43.128Z,0
2023-01-19T10:00:45.379Z,0
2023-01-19T10:15:47.823Z,0
2023-01-19T10:30:50.375Z,0
2023-01-19T10:45:52.704Z,0
2023-01-19T11:00:55.096Z,0
2023-01-19T11:15:57.474Z,0
2023-01-19T11:30:59.819Z,0
2023-01-19T11:46:02.199Z,0
2023-01-19T12:01:04.579Z,0
2023-01-19T12:16:06.845Z,0
2023-01-19T12:31:09.237Z,0
2023-01-19T12:46:11.535Z,0
2023-01-19T13:01:13.912Z,0
2023-01-19T13:16:16.247Z,0
2023-01-19T13:31:18.646Z,0
2023-01-19T13:46:20.966Z,0
2023-01-19T14:01:23.694Z,0
2023-01-19T14:16:26.573Z,0
2023-01-19T14:31:28.876Z,0
2023-01-19T14:46:31.182Z,0
2023-01-19T15:01:33.857Z,0
2023-01-19T15:16:36.224Z,2.53581
2023-01-19T15:31:38.555Z,20.28646
2023-01-19T15:46:40.815Z,105.23602
2023-01-19T16:01:43.150Z,237.09801
2023-01-19T16:16:45.486Z,450.10587
2023-01-19T16:31:47.801Z,675.79272
2023-01-19T16:46:50.280Z,798.77942
2023-01-19T17:01:52.592Z,1023.19836
2023-01-19T17:16:55.045Z,1697.72314
2023-01-19T17:31:57.258Z,3011.27148
2023-01-19T17:47:00.077Z,6004.79248
2023-01-19T18:02:02.454Z,3744.11987
2023-01-19T18:17:04.809Z,3491.80713
2023-01-19T18:32:06.988Z,2687.95605
2023-01-19T18:47:09.225Z,3462.64526
2023-01-19T19:02:11.574Z,6627.33301
2023-01-19T19:17:13.896Z,5122.33154
2023-01-19T19:32:16.103Z,6605.77881
2023-01-19T19:47:18.556Z,6314.16113
2023-01-19T20:02:20.790Z,6125.24316
2023-01-19T20:17:23.094Z,6785.82129
2023-01-19T20:32:25.362Z,5351.82178
2023-01-19T20:47:27.584Z,4772.39014
2023-01-19T21:02:29.863Z,4261.4248
2023-01-19T21:17:32.339Z,4613.90186
2023-01-19T21:32:34.766Z,4849.73193
2023-01-19T21:47:37.007Z,7518.66943
2023-01-19T22:02:39.469Z,6969.66699
2023-01-19T22:17:41.842Z,5748.67578
2023-01-19T22:32:44.563Z,5186.99463
2023-01-19T22:47:46.831Z,2813.47852
2023-01-19T23:02:49.180Z,2273.35156
2023-01-19T23:17:51.611Z,1757.3147
2023-01-19T23:32:54.050Z,1309.74463
2023-01-19T23:47:56.318Z,914.15863
